Monday, June 25, 2018, 9:16 AM EDT
Back to Local

KTEB, Teterboro Airport

Location: South Hackensack, NJ, United States Lat: 40.867
Local Time: 9:16 AM EDT (13:16 GMT) Lon: -74.05
Time Zone: US/Eastern Elev: 9 ft

Show me the last for .
Show Decoded

2018-06-25 08:51 METAR KTEB 251251Z 33012G20KT 10SM CLR 23/15 A2995 RMK AO2 SLP141 T02330150 $ =
2018-06-25 07:51 METAR KTEB 251151Z 34010KT 10SM CLR 22/15 A2994 RMK AO2 SLP137 70022 T02170150
                 10217 20189 51029 $ =
2018-06-25 06:51 METAR KTEB 251051Z 32008KT 10SM CLR 20/16 A2992 RMK AO2 SLP132 T02000161 $ =
2018-06-25 05:51 METAR KTEB 250951Z 33005KT 10SM CLR 19/16 A2990 RMK AO2 SLP124 T01940161 $ =
2018-06-25 04:51 METAR KTEB 250851Z 36007KT 10SM BKN033 20/16 A2985 RMK AO2 SLP108 T02000161
                 53015 $ =
2018-06-25 04:36 METAR KTEB 250836Z 35008KT 10SM OVC033 20/17 A2985 RMK AO2 T02000167 $ =
2018-06-25 03:51 METAR KTEB 250751Z 36013G18KT 10SM OVC017 21/17 A2984 RMK AO2 SLP104 T02060172 $
                 =
2018-06-25 03:21 METAR KTEB 250721Z 36005KT 10SM BKN021 21/18 A2983 RMK AO2 T02110183 $ =
2018-06-25 02:51 METAR KTEB 250651Z 32008KT 10SM CLR 21/18 A2982 RMK AO2 SLP096 T02060178 $ =
2018-06-25 01:51 METAR KTEB 250551Z 30004KT 10SM OVC120 21/18 A2981 RMK AO2 SLP094 60022
                 T02110178 10294 20211 58001 $ =
2018-06-25 00:51 METAR KTEB 250451Z 30005KT 10SM CLR 21/18 A2981 RMK AO2 SLP095 T02110183
                 403220189 $ =
2018-06-24 23:51 METAR KTEB 250351Z 31007KT 10SM BKN120 22/19 A2981 RMK AO2 SLP093 T02170194 $ =
2018-06-24 22:51 METAR KTEB 250251Z 28003KT 10SM CLR 22/19 A2981 RMK AO2 SLP094 60022 T02220194
                 50019 $ =
2018-06-24 21:51 METAR KTEB 250151Z 30003KT 10SM FEW080 BKN100 22/19 A2982 RMK AO2 RAE36 SLP096
                 P0022 T02220194 $ =
2018-06-24 21:13 METAR KTEB 250113Z 34005KT 10SM -RA FEW023 BKN045 OVC120 22/19 A2979 RMK AO2 TS
                 OCNL LTG CGICCCCA W MOV E P0022 T02170194 $ =
2018-06-24 21:03 METAR KTEB 250103Z 33008KT 1 1/2SM R06/4500VP6000FT +RA BR FEW023 BKN043 OVC050
                 22/19 A2979 RMK AO2 P0004 T02170194 $ =
2018-06-24 20:51 METAR KTEB 250051Z 33015G23KT 10SM -RA BKN050 OVC065 25/18 A2979 RMK AO2 RAB42
                 PRESRR SLP087 P0000 T02500178 $ =
2018-06-24 19:51 METAR KTEB 242351Z 26009G19KT 10SM BKN085 29/18 A2975 RMK AO2 SLP075 T02940178
                 10322 20283 55000 $ =
2018-06-24 18:51 METAR KTEB 242251Z 27010G20KT 10SM CLR 30/18 A2974 RMK AO2 SLP069 T03000178 $ =
2018-06-24 17:51 METAR KTEB 242151Z 24011KT 10SM FEW065 SCT090 31/17 A2974 RMK AO2 SLP071
                 T03110172 $ =
2018-06-24 16:51 METAR KTEB 242051Z 27008KT 10SM FEW055 BKN090 OVC100 30/18 A2975 RMK AO2 SLP075
                 T03000178 56007 $ =
2018-06-24 15:51 METAR KTEB 241951Z 19007KT 10SM SCT050 SCT065 OVC090 29/20 A2975 RMK AO2 SLP075
                 T02940200 $ =
2018-06-24 14:51 METAR KTEB 241851Z 19010KT 10SM FEW049 BKN065 BKN095 28/20 A2977 RMK AO2 WSHFT
                 1747 SLP080 T02830200 $ =
2018-06-24 14:07 METAR KTEB 241807Z 18012KT 10SM FEW037 BKN047 BKN055 28/20 A2977 RMK AO2 WSHFT
                 1747 T02830200 $ =
2018-06-24 13:51 METAR KTEB 241751Z 22012KT 10SM SCT047 SCT090 30/19 A2978 RMK AO2 SLP083
                 T03000189 10306 20206 58014 $ =
2018-06-24 12:51 METAR KTEB 241651Z 26009G16KT 10SM SCT038 SCT055 29/19 A2979 RMK AO2 SLP087
                 T02890194 $ =
2018-06-24 11:51 METAR KTEB 241551Z 19009KT 8SM SCT028 SCT034 27/21 A2981 RMK AO2 SLP094
                 T02720206 $ =
2018-06-24 11:11 METAR KTEB 241511Z VRB03KT 8SM SCT021 26/20 A2982 RMK AO2 T02610200 $ =
2018-06-24 10:51 METAR KTEB 241451Z 14006KT 4SM BKN021 25/19 A2982 RMK AO2 SLP097 T02500194 58003
                 $ =
2018-06-24 10:17 METAR KTEB 241417Z 21006KT 4SM OVC016 24/19 A2982 =
2018-06-24 09:51 METAR KTEB 241351Z VRB04KT 4SM OVC012 24/19 A2982 RMK AO2 SLP099 T02390194 $ =
2018-06-24 09:34 METAR KTEB 241334Z VRB03KT 4SM HZ OVC012 22/19 A2983 RMK AO2 T02220194 $ =

Support USWX by starting your Amazon purchase here.